SBOSBO TPA / KTPA
Speedbird OnlineSpeedbird Online TPA / KTPA

Tampa International Airport
17:46 24.7°C

Location Tampa, United States
Latitude: 27.975500106811523
Longitude: -82.533203125
Web Wikipedia
Altitude 8 Meter / 26 Feet
Distance 7,123 KM / 4,426 Miles
from London.
Time Zone UTC -5 hours (America/New_York)
Codes IATA: TPA
ICAO: KTPA
Currency £1 equals USD 1.21
Runways
RunwayLength (m)Surface
01L3353Concrete
01R2530Partial
102133Partial
19L2530Partial
19R3353Concrete
282133Partial
Radio
TypeDescriptionFrequency
A/DAPP/DEP118.15
ATISATIS126.45
CLDCLNC DEL133.6
GNDGND121.7
TWRTWR119.5
UNICUNICOM122.95
Live ATC
METAR KTPA 081353Z 11006KT 10SM CLR 21/13 A3028 RMK AO2 SLP253 T02110133
TAF KTPA 081457Z 0815/0918 15007KT P6SM FEW250 FM090000 11010KT P6SM FEW250 FM090300 10004KT P6SM SKC FM091400 14008KT P6SM SKC
Weather As Of 08 Feb 2023 17:46
Description Clear sky
Wind 15 km/h from East (100°)
Cloud Cover 0%
Precipitation Rain: none, Snow: none
Sunrise 07:13
Sunset 18:15
Lounges American Airlines Admirals Club, Main Terminal
Rotations During the last 90 days there were
60 flights from LGW
64 flights to LGW



Support Speedbird Online

© 2017-2023 Speedbird Online